Time;durP1;ratioP1;P1;durP2;ratioP2;P2;SDS_P1;SDS_P2;PMS_P1;PMS_P2;Temp;Humidity;BMP_temperature;BMP_pressure;BME280_temperature;BME280_humidity;BME280_pressure;Samples;Min_cycle;Max_cycle;Signal;HPM_P1;HPM_P2
2023/10/10 00:01:17;;;;;;;0.40;0.30;;;15.10;99.90;;;;;;5030920;28;20456;-80
2023/10/10 00:03:45;;;;;;;0.60;0.57;;;15.10;99.90;;;;;;5034631;28;20462;-79
2023/10/10 00:06:13;;;;;;;0.40;0.30;;;15.00;99.90;;;;;;5018961;28;20538;-81
2023/10/10 00:08:40;;;;;;;1.07;0.97;;;15.00;99.90;;;;;;5010808;28;20447;-80
2023/10/10 00:11:14;;;;;;;0.40;0.30;;;15.10;99.90;;;;;;5016170;28;20475;-81
2023/10/10 00:13:43;;;;;;;0.40;0.30;;;15.10;99.90;;;;;;5029928;28;20514;-77
2023/10/10 00:16:26;;;;;;;0.40;0.30;;;15.10;99.90;;;;;;5013396;28;20440;-82
2023/10/10 00:18:56;;;;;;;0.93;0.93;;;16.20;99.90;;;;;;5029566;28;20437;-81
2023/10/10 00:21:28;;;;;;;0.50;0.43;;;15.10;99.90;;;;;;5014474;28;20519;-84
2023/10/10 00:23:55;;;;;;;0.50;0.40;;;15.10;99.90;;;;;;5013313;28;21056;-85
2023/10/10 00:26:21;;;;;;;0.93;0.87;;;15.10;99.90;;;;;;5016243;28;20440;-82
2023/10/10 00:28:57;;;;;;;1.13;0.93;;;15.00;99.90;;;;;;5016531;28;21585;-81
2023/10/10 00:31:28;;;;;;;1.80;0.43;;;15.00;99.90;;;;;;5013087;28;20443;-82
2023/10/10 00:33:55;;;;;;;2.33;1.77;;;15.00;99.90;;;;;;5030776;28;20456;-84
2023/10/10 00:36:42;;;;;;;12.40;2.00;;;15.30;99.90;;;;;;5019907;28;20436;-80
2023/10/10 00:41:50;;;;;;;0.40;0.30;;;15.10;99.90;;;;;;5016892;28;20441;-81
2023/10/10 00:44:17;;;;;;;0.53;0.50;;;15.00;99.90;;;;;;5014418;28;20863;-77
2023/10/10 00:46:54;;;;;;;1.13;0.60;;;15.00;99.90;;;;;;5033321;28;20510;-77
2023/10/10 00:49:25;;;;;;;1.33;0.60;;;15.00;99.90;;;;;;5039930;28;20454;-83
2023/10/10 00:52:07;;;;;;;0.50;0.50;;;15.00;99.90;;;;;;5028572;28;20443;-84
2023/10/10 00:54:39;;;;;;;0.40;0.20;;;15.00;99.90;;;;;;5022926;28;20447;-80
2023/10/10 00:57:08;;;;;;;0.50;0.43;;;15.10;99.90;;;;;;5041094;28;21060;-78
2023/10/10 00:59:44;;;;;;;1.73;1.63;;;;;;;;;;5018109;28;20444;-79
2023/10/10 01:02:12;;;;;;;1.00;0.47;;;15.00;99.90;;;;;;5033833;28;20447;-80
2023/10/10 01:07:18;;;;;;;0.97;0.87;;;14.90;99.90;;;;;;5023132;28;20760;-80
2023/10/10 01:09:55;;;;;;;0.80;0.60;;;14.80;99.90;;;;;;5051485;28;20440;-82
2023/10/10 01:12:22;;;;;;;0.80;0.80;;;14.70;99.90;;;;;;5049271;28;20448;-77
2023/10/10 01:14:54;;;;;;;0.50;0.40;;;14.70;99.90;;;;;;5035843;28;20436;-85
2023/10/10 01:17:25;;;;;;;0.90;0.90;;;14.60;99.90;;;;;;5022206;28;20445;-79
2023/10/10 01:19:51;;;;;;;0.77;0.70;;;14.50;99.90;;;;;;5018798;28;20532;-85
2023/10/10 01:22:35;;;;;;;0.60;0.57;;;14.20;99.90;;;;;;5021336;28;20456;-78
2023/10/10 01:25:05;;;;;;;0.40;0.20;;;14.20;99.90;;;;;;5021627;28;20502;-84
2023/10/10 01:27:31;;;;;;;2.73;0.60;;;14.20;99.90;;;;;;5029826;28;20517;-81
2023/10/10 01:32:41;;;;;;;1.33;0.60;;;14.10;99.90;;;;;;5021091;28;20463;-76
2023/10/10 01:35:16;;;;;;;0.80;0.53;;;14.10;99.90;;;;;;5051944;28;20990;-83
2023/10/10 01:37:42;;;;;;;0.40;0.30;;;14.10;99.90;;;;;;5022680;28;20189;-83
2023/10/10 01:40:16;;;;;;;2.30;1.47;;;14.10;99.90;;;;;;5035095;28;21480;-83
2023/10/10 01:42:51;;;;;;;0.40;0.30;;;14.10;99.90;;;;;;5021457;28;20475;-82
2023/10/10 01:45:20;;;;;;;0.40;0.30;;;14.20;99.90;;;;;;5018765;28;20467;-81
2023/10/10 01:48:08;;;;;;;0.40;0.30;;;14.20;99.90;;;;;;5018311;28;20445;-80
2023/10/10 01:50:34;;;;;;;0.40;0.20;;;14.30;99.90;;;;;;5016252;28;20807;-77
2023/10/10 01:53:00;;;;;;;0.40;0.30;;;14.20;99.90;;;;;;5035205;28;20455;-82
2023/10/10 01:55:26;;;;;;;1.23;1.13;;;14.10;99.90;;;;;;5014447;28;20444;-84
2023/10/10 01:57:53;;;;;;;0.40;0.20;;;14.00;99.90;;;;;;5020298;28;20444;-80
2023/10/10 02:00:26;;;;;;;1.57;1.47;;;14.00;99.90;;;;;;5024807;28;20219;-83
2023/10/10 02:02:53;;;;;;;0.60;0.60;;;14.00;99.90;;;;;;5053366;28;20535;-78
2023/10/10 02:05:41;;;;;;;0.40;0.30;;;14.00;99.90;;;;;;5031356;28;20467;-84
2023/10/10 02:08:11;;;;;;;0.40;0.20;;;14.00;99.90;;;;;;5020164;28;20520;-82
2023/10/10 02:10:43;;;;;;;1.07;0.77;;;13.90;99.90;;;;;;5017302;28;20474;-87
2023/10/10 02:13:11;;;;;;;0.50;0.40;;;14.00;99.90;;;;;;5020445;28;20559;-79
2023/10/10 02:15:39;;;;;;;0.60;0.50;;;14.00;99.90;;;;;;5016466;28;20443;-84
2023/10/10 02:18:23;;;;;;;1.13;1.03;;;13.90;99.90;;;;;;5019828;28;20436;-81
2023/10/10 02:20:49;;;;;;;1.13;0.97;;;14.00;99.90;;;;;;5019105;28;20445;-85
2023/10/10 02:23:31;;;;;;;6.23;0.93;;;13.90;99.90;;;;;;5030643;28;21048;-78
2023/10/10 02:26:02;;;;;;;0.60;0.40;;;13.90;99.90;;;;;;5030142;28;20808;-80
2023/10/10 02:31:14;;;;;;;10.83;0.80;;;13.80;99.90;;;;;;5015862;28;20968;-80
2023/10/10 02:33:48;;;;;;;1.13;1.03;;;13.80;99.90;;;;;;5037858;28;20464;-77
2023/10/10 02:36:29;;;;;;;3.70;0.80;;;13.80;99.90;;;;;;5011274;28;21555;-81
2023/10/10 02:38:59;;;;;;;0.60;0.53;;;13.70;99.90;;;;;;5047147;28;20444;-78
2023/10/10 02:41:37;;;;;;;0.70;0.60;;;13.70;99.90;;;;;;5028666;28;20451;-81
2023/10/10 02:46:39;;;;;;;0.40;0.20;;;13.70;99.90;;;;;;5014895;28;20444;-81
2023/10/10 02:49:13;;;;;;;2.10;1.33;;;13.70;99.90;;;;;;5019620;28;20458;-82
2023/10/10 02:51:43;;;;;;;0.40;0.20;;;13.60;99.90;;;;;;5020388;28;20427;-82
2023/10/10 02:54:21;;;;;;;0.80;0.73;;;13.40;99.90;;;;;;5029812;28;20464;-77
2023/10/10 02:56:50;;;;;;;0.80;0.80;;;13.40;99.90;;;;;;5035811;28;21033;-81
2023/10/10 02:59:22;;;;;;;0.40;0.20;;;13.30;99.90;;;;;;5022176;28;20449;-83
2023/10/10 03:01:56;;;;;;;0.40;0.30;;;13.30;99.90;;;;;;5047461;28;20441;-77
2023/10/10 03:04:24;;;;;;;0.40;0.20;;;13.30;99.90;;;;;;5030519;28;20566;-83
2023/10/10 03:06:49;;;;;;;0.50;0.40;;;13.30;99.90;;;;;;5017929;28;20475;-78
2023/10/10 03:12:05;;;;;;;0.73;0.73;;;13.40;99.90;;;;;;5020920;28;20278;-79
2023/10/10 03:14:33;;;;;;;0.40;0.30;;;13.50;99.90;;;;;;5023474;28;20529;-78
2023/10/10 03:17:05;;;;;;;0.83;0.63;;;13.50;99.90;;;;;;5035227;28;20448;-82
2023/10/10 03:19:38;;;;;;;0.40;0.30;;;13.50;99.90;;;;;;5031470;28;20436;-75
2023/10/10 03:22:22;;;;;;;0.40;0.30;;;;;;;;;;5022529;28;20448;-83
2023/10/10 03:25:38;;;;;;;1.33;0.77;;;12.60;99.90;;;;;;5033300;28;20514;-79
2023/10/10 03:27:55;;;;;;;1.07;1.07;;;13.30;99.90;;;;;;5019435;28;20471;-84
2023/10/10 03:30:34;;;;;;;0.50;0.50;;;13.20;99.90;;;;;;5049489;28;20462;-82
2023/10/10 03:33:08;;;;;;;1.43;0.80;;;13.20;99.90;;;;;;5015231;28;21160;-84
2023/10/10 03:35:59;;;;;;;2.93;2.60;;;13.00;99.90;;;;;;5025048;28;21137;-81
2023/10/10 05:25:13;;;;;;;1.67;0.85;;;11.30;99.90;;;;;;5015703;28;20248;-76
2023/10/10 05:27:43;;;;;;;0.57;0.57;;;11.30;99.90;;;;;;5029278;28;20189;-81
2023/10/10 05:30:23;;;;;;;0.40;0.30;;;10.90;99.90;;;;;;5015865;28;20189;-83
2023/10/10 05:33:00;;;;;;;0.40;0.30;;;11.20;99.90;;;;;;5026311;28;20206;-79
2023/10/10 05:35:49;;;;;;;0.40;0.30;;;11.10;99.90;;;;;;5015087;28;20201;-79
2023/10/10 05:38:19;;;;;;;0.40;0.30;;;11.00;99.90;;;;;;5033576;28;20198;-78
2023/10/10 05:40:47;;;;;;;0.40;0.20;;;11.00;99.90;;;;;;5045997;28;20540;-79
2023/10/10 05:43:16;;;;;;;0.40;0.40;;;11.00;99.90;;;;;;5024452;28;20217;-85
2023/10/10 05:45:45;;;;;;;0.40;0.30;;;11.00;99.90;;;;;;5013597;28;20197;-82
2023/10/10 05:48:11;;;;;;;0.70;0.50;;;11.10;99.90;;;;;;5013406;28;20213;-81
2023/10/10 05:50:37;;;;;;;0.50;0.50;;;11.20;99.90;;;;;;5047263;28;20298;-83
2023/10/10 05:53:06;;;;;;;0.40;0.30;;;11.10;99.90;;;;;;5011874;28;20224;-82
2023/10/10 05:55:34;;;;;;;1.13;1.02;;;11.10;99.90;;;;;;5015812;28;20661;-79
2023/10/10 05:58:02;;;;;;;3.72;1.58;;;11.10;99.90;;;;;;5011471;28;20178;-80
2023/10/10 06:00:28;;;;;;;0.40;0.30;;;11.10;99.90;;;;;;5012765;28;20185;-80
2023/10/10 06:02:54;;;;;;;0.40;0.40;;;11.30;99.90;;;;;;5005896;28;20209;-80
2023/10/10 06:05:21;;;;;;;0.40;0.40;;;11.50;99.90;;;;;;5012221;28;20209;-82
2023/10/10 06:07:49;;;;;;;0.40;0.30;;;11.70;99.90;;;;;;5003523;28;20448;-83
2023/10/10 06:10:18;;;;;;;0.40;0.30;;;12.00;99.90;;;;;;5002515;28;21623;-83
2023/10/10 06:12:45;;;;;;;0.40;0.20;;;12.30;99.90;;;;;;5018905;28;20214;-78
2023/10/10 06:15:12;;;;;;;0.60;0.57;;;12.50;99.90;;;;;;5003744;28;20201;-81
2023/10/10 06:17:39;;;;;;;0.40;0.20;;;13.00;99.90;;;;;;5027498;28;20248;-79
2023/10/10 06:20:16;;;;;;;8.48;1.27;;;13.50;99.90;;;;;;5010137;28;20194;-82
2023/10/10 06:22:44;;;;;;;0.50;0.47;;;14.00;99.90;;;;;;5006223;28;20221;-80
2023/10/10 06:25:11;;;;;;;1.90;1.80;;;14.20;99.90;;;;;;5018353;28;20468;-77
2023/10/10 06:27:40;;;;;;;0.40;0.30;;;14.40;99.90;;;;;;5008295;28;20975;-80
2023/10/10 06:30:17;;;;;;;2.50;1.17;;;14.60;99.90;;;;;;5008915;28;20436;-82
2023/10/10 06:32:43;;;;;;;1.87;1.03;;;14.90;99.90;;;;;;5018922;28;20455;-80
2023/10/10 06:37:52;;;;;;;5.23;1.83;;;15.80;99.90;;;;;;5009363;28;20443;-81
2023/10/10 06:40:25;;;;;;;0.50;0.40;;;16.10;99.90;;;;;;5008987;28;20451;-81
2023/10/10 06:42:55;;;;;;;0.40;0.30;;;;;;;;;;5008881;28;21238;-77
2023/10/10 06:45:23;;;;;;;1.60;0.97;;;15.00;99.90;;;;;;5009289;28;21115;-77
2023/10/10 06:47:51;;;;;;;2.50;1.50;;;15.20;99.90;;;;;;5022415;28;20443;-81
2023/10/10 06:50:21;;;;;;;1.07;0.67;;;;;;;;;;5031737;28;20439;-81
2023/10/10 06:52:53;;;;;;;0.60;0.60;;;16.80;99.90;;;;;;5007394;28;20463;-84
2023/10/10 06:55:23;;;;;;;0.50;0.50;;;18.10;99.90;;;;;;5025039;28;20451;-80
2023/10/10 06:57:59;;;;;;;0.97;0.97;;;19.70;99.90;;;;;;5026885;28;20440;-81
2023/10/10 07:03:04;;;;;;;0.93;0.60;;;21.90;99.90;;;;;;5025332;28;20452;-79
2023/10/10 07:05:33;;;;;;;0.50;0.30;;;;;;;;;;5027058;28;20471;-81
2023/10/10 07:07:59;;;;;;;0.40;0.20;;;22.60;99.90;;;;;;5028369;28;20449;-81
2023/10/10 07:10:33;;;;;;;0.50;0.30;;;22.90;99.90;;;;;;5032615;28;20462;-80
2023/10/10 07:13:03;;;;;;;3.13;1.40;;;23.20;99.90;;;;;;5005308;28;21460;-80
2023/10/10 07:15:36;;;;;;;0.90;0.67;;;22.80;99.90;;;;;;5018641;28;20819;-78
2023/10/10 07:18:08;;;;;;;2.20;1.07;;;23.00;99.90;;;;;;5005974;28;21012;-80
2023/10/10 07:23:22;;;;;;;0.70;0.60;;;23.40;99.90;;;;;;5013377;28;20490;-81
2023/10/10 07:26:00;;;;;;;1.17;1.07;;;23.80;99.90;;;;;;5044773;28;20454;-81
2023/10/10 07:28:26;;;;;;;0.70;0.70;;;24.00;99.90;;;;;;5011083;28;20436;-82
2023/10/10 07:30:53;;;;;;;0.50;0.40;;;24.60;99.90;;;;;;5015705;28;20535;-79
2023/10/10 07:33:23;;;;;;;5.33;2.40;;;25.30;98.40;;;;;;5027589;28;20451;-79
2023/10/10 07:35:53;;;;;;;0.60;0.40;;;25.10;97.80;;;;;;5015836;28;20454;-80
2023/10/10 07:38:28;;;;;;;1.43;0.80;;;25.60;97.80;;;;;;5045070;28;20449;-80
2023/10/10 07:40:54;;;;;;;1.13;0.47;;;26.10;97.40;;;;;;5020238;28;20820;-82
2023/10/10 07:43:26;;;;;;;0.50;0.50;;;26.70;95.80;;;;;;5034657;28;20466;-82
2023/10/10 07:45:54;;;;;;;1.00;0.83;;;;;;;;;;5017724;28;20435;-84
2023/10/10 07:48:38;;;;;;;2.43;2.20;;;27.10;92.80;;;;;;5015477;28;20893;-78
2023/10/10 07:51:06;;;;;;;0.60;0.60;;;27.30;92.00;;;;;;5028908;28;20471;-81
2023/10/10 07:53:41;;;;;;;1.27;1.17;;;29.10;93.30;;;;;;5014868;28;20640;-81
2023/10/10 07:56:07;;;;;;;0.97;0.97;;;26.80;92.60;;;;;;5011751;28;20455;-80
2023/10/10 07:58:49;;;;;;;0.50;0.50;;;27.30;92.20;;;;;;5029126;28;20441;-80
2023/10/10 08:01:18;;;;;;;1.03;0.53;;;27.20;91.00;;;;;;5010800;28;20178;-78
2023/10/10 08:03:45;;;;;;;4.43;3.20;;;26.70;91.20;;;;;;5042673;28;20464;-85
2023/10/10 08:06:23;;;;;;;2.40;1.17;;;26.80;91.30;;;;;;5043812;28;20449;-83
2023/10/10 08:11:37;;;;;;;1.60;1.13;;;;;;;;;;5010181;28;20524;-78
2023/10/10 08:14:07;;;;;;;1.87;1.53;;;27.20;90.40;;;;;;5013474;28;20464;-77
2023/10/10 08:16:38;;;;;;;0.50;0.30;;;27.90;91.30;;;;;;5031192;28;20867;-79
2023/10/10 08:19:07;;;;;;;1.00;0.90;;;27.50;89.20;;;;;;5018900;28;20459;-80
2023/10/10 08:21:48;;;;;;;0.83;0.60;;;26.90;90.60;;;;;;5021394;28;20465;-79
2023/10/10 08:24:15;;;;;;;2.40;1.50;;;26.70;91.80;;;;;;5034033;28;20465;-81
2023/10/10 08:26:42;;;;;;;4.07;3.77;;;26.80;91.50;;;;;;5021549;28;20457;-79
2023/10/10 08:29:08;;;;;;;0.50;0.50;;;26.80;91.10;;;;;;5026933;28;20445;-77
2023/10/10 08:31:36;;;;;;;1.10;0.73;;;26.90;91.10;;;;;;5014485;28;20491;-81
2023/10/10 08:34:02;;;;;;;1.03;0.93;;;;;;;;;;5012904;28;20467;-80
2023/10/10 08:36:29;;;;;;;1.43;0.73;;;27.50;90.30;;;;;;5015435;28;20441;-82
2023/10/10 08:38:56;;;;;;;4.00;1.93;;;28.30;89.80;;;;;;5020326;28;20470;-76
2023/10/10 08:41:26;;;;;;;0.53;0.53;;;28.90;86.30;;;;;;5060413;28;20455;-78
2023/10/10 08:43:57;;;;;;;1.00;0.90;;;28.50;85.30;;;;;;5021549;28;20583;-79
2023/10/10 08:46:29;;;;;;;1.90;1.47;;;28.50;86.00;;;;;;5050917;28;20497;-78
2023/10/10 08:48:57;;;;;;;1.47;1.27;;;28.50;83.80;;;;;;5013856;28;21221;-81
2023/10/10 08:51:23;;;;;;;0.40;0.40;;;28.40;83.60;;;;;;5013112;28;20446;-80
2023/10/10 08:53:53;;;;;;;2.10;1.60;;;28.10;83.90;;;;;;5032456;28;20550;-81
2023/10/10 08:56:20;;;;;;;0.70;0.67;;;;;;;;;;5015060;28;20714;-77
2023/10/10 08:58:46;;;;;;;2.53;2.03;;;28.40;83.80;;;;;;5023588;28;21025;-84
2023/10/10 09:01:13;;;;;;;1.53;1.43;;;29.50;82.70;;;;;;5012282;28;20439;-83
2023/10/10 09:03:45;;;;;;;2.80;1.47;;;30.00;80.00;;;;;;5044231;28;20472;-82
2023/10/10 09:06:19;;;;;;;8.23;2.13;;;30.10;76.70;;;;;;5019851;28;21084;-82
2023/10/10 09:08:49;;;;;;;1.60;1.40;;;;;;;;;;5028961;28;21527;-81
2023/10/10 09:11:15;;;;;;;1.37;1.27;;;30.00;78.50;;;;;;5011241;28;20436;-81
2023/10/10 09:13:51;;;;;;;0.80;0.77;;;30.10;79.30;;;;;;5026760;28;20541;-80
2023/10/10 09:16:36;;;;;;;0.80;0.80;;;30.00;80.80;;;;;;5018689;28;20453;-82
2023/10/10 09:19:08;;;;;;;3.13;1.17;;;29.90;79.40;;;;;;5015959;28;20439;-82
2023/10/10 09:21:55;;;;;;;0.97;0.93;;;29.40;81.10;;;;;;5015779;28;20454;-82
2023/10/10 09:24:31;;;;;;;0.70;0.70;;;29.20;80.90;;;;;;5035107;28;20533;-83
2023/10/10 09:26:59;;;;;;;2.50;2.00;;;29.50;79.90;;;;;;5014743;28;20424;-80
2023/10/10 09:29:32;;;;;;;1.93;0.80;;;29.70;79.10;;;;;;5048432;28;20516;-77
2023/10/10 09:31:59;;;;;;;0.70;0.70;;;29.50;78.60;;;;;;5019714;28;20437;-79
2023/10/10 09:34:28;;;;;;;1.77;1.67;;;;;;;;;;5018262;28;20464;-81
2023/10/10 09:36:57;;;;;;;1.27;1.17;;;30.10;76.50;;;;;;5028144;28;20437;-80
2023/10/10 09:39:37;;;;;;;1.23;0.90;;;29.30;77.30;;;;;;5028687;28;20440;-85
2023/10/10 09:42:08;;;;;;;1.50;1.17;;;28.70;78.70;;;;;;5014223;28;22200;-81
2023/10/10 09:52:58;;;;;;;1.63;1.53;;;28.20;78.80;;;;;;5026598;28;20515;-81
2023/10/10 10:06:34;;;;;;;2.30;2.20;;;25.50;88.60;;;;;;5035545;28;20474;-83
2023/10/10 10:09:18;;;;;;;0.70;0.67;;;25.50;90.20;;;;;;5028137;28;20456;-84
2023/10/10 10:12:19;;;;;;;1.27;1.13;;;25.50;90.00;;;;;;5030375;28;20517;-82
2023/10/10 10:14:53;;;;;;;6.03;1.60;;;25.20;91.20;;;;;;5031384;28;20450;-82
2023/10/10 10:17:48;;;;;;;1.27;1.17;;;25.00;92.00;;;;;;5035995;28;20458;-79
2023/10/10 10:21:05;;;;;;;1.90;0.90;;;25.10;91.50;;;;;;5029307;28;20464;-84
2023/10/10 10:23:25;;;;;;;0.50;0.40;;;24.90;92.00;;;;;;5005029;28;20512;-78
2023/10/10 10:26:04;;;;;;;0.50;0.40;;;24.50;92.60;;;;;;5023234;28;20455;-81
2023/10/10 10:28:35;;;;;;;0.60;0.40;;;24.30;93.90;;;;;;5010678;28;20993;-77
2023/10/10 10:31:16;;;;;;;1.80;1.70;;;23.90;94.50;;;;;;5008436;28;20481;-83
2023/10/10 10:34:05;;;;;;;0.80;0.70;;;23.90;95.40;;;;;;5030926;28;21060;-79
2023/10/10 10:36:45;;;;;;;3.60;1.73;;;24.50;95.60;;;;;;5011072;28;20453;-82
2023/10/10 10:39:35;;;;;;;0.90;0.90;;;25.10;94.80;;;;;;5023625;28;20455;-78
2023/10/10 10:42:11;;;;;;;6.90;1.80;;;25.30;94.30;;;;;;5027659;28;20913;-79
2023/10/10 10:44:44;;;;;;;1.57;0.87;;;25.10;94.00;;;;;;5020969;28;20511;-84
2023/10/10 10:47:35;;;;;;;1.00;0.77;;;25.00;94.10;;;;;;5032329;28;20892;-81
2023/10/10 10:50:05;;;;;;;0.63;0.47;;;25.00;93.70;;;;;;5028295;28;20438;-81
2023/10/10 10:52:56;;;;;;;1.43;1.07;;;25.00;94.00;;;;;;5013173;28;20475;-78
2023/10/10 10:55:27;;;;;;;0.77;0.60;;;24.70;94.40;;;;;;5033317;28;21012;-77
2023/10/10 10:58:06;;;;;;;1.03;0.93;;;24.40;94.60;;;;;;5037708;28;20436;-77
2023/10/10 11:03:34;;;;;;;1.27;0.63;;;24.80;94.90;;;;;;5016454;28;20466;-81
2023/10/10 11:06:07;;;;;;;0.63;0.50;;;25.10;94.50;;;;;;5060013;28;20442;-79
2023/10/10 11:11:24;;;;;;;0.70;0.70;;;25.50;93.30;;;;;;5031818;28;20438;-78
2023/10/10 11:13:54;;;;;;;5.80;2.50;;;25.50;93.30;;;;;;5026563;28;20608;-81
2023/10/10 11:16:37;;;;;;;0.77;0.67;;;25.00;94.20;;;;;;5032298;28;20593;-79
2023/10/10 11:19:53;;;;;;;0.80;0.77;;;24.70;95.80;;;;;;5033430;28;20495;-80
2023/10/10 11:22:00;;;;;;;1.80;1.63;;;25.10;95.40;;;;;;5012979;28;20464;-83
2023/10/10 11:24:31;;;;;;;1.33;0.97;;;25.30;94.20;;;;;;5019766;28;20468;-80
2023/10/10 11:29:50;;;;;;;2.20;0.60;;;25.60;93.30;;;;;;5046371;28;20487;-78
2023/10/10 11:32:36;;;;;;;0.70;0.57;;;25.60;92.30;;;;;;5018295;28;21429;-82
2023/10/10 11:35:18;;;;;;;1.17;0.80;;;25.60;92.70;;;;;;5046015;28;20939;-82
2023/10/10 11:38:35;;;;;;;4.10;1.60;;;25.50;93.10;;;;;;5011374;28;20433;-84
2023/10/10 11:40:31;;;;;;;0.67;0.50;;;25.50;93.70;;;;;;5015618;28;20540;-80
2023/10/10 11:43:13;;;;;;;2.77;1.17;;;25.50;94.10;;;;;;5019441;28;20464;-77
2023/10/10 11:45:39;;;;;;;1.33;0.53;;;25.30;94.00;;;;;;5029557;28;20496;-78
2023/10/10 11:48:12;;;;;;;1.03;0.60;;;25.30;93.30;;;;;;5019803;28;20454;-83
2023/10/10 11:50:45;;;;;;;2.77;1.80;;;25.30;94.20;;;;;;5038076;28;21025;-77
2023/10/10 11:53:24;;;;;;;0.43;0.30;;;25.50;93.50;;;;;;5017388;28;20464;-82
2023/10/10 11:55:54;;;;;;;0.50;0.50;;;25.20;90.40;;;;;;5037124;28;20544;-78
2023/10/10 11:58:20;;;;;;;0.53;0.53;;;25.00;90.90;;;;;;5016790;28;20496;-79
2023/10/10 12:01:03;;;;;;;0.90;0.90;;;24.90;86.40;;;;;;5020778;28;20518;-80
2023/10/10 12:08:48;;;;;;;0.50;0.37;;;25.70;83.90;;;;;;5022465;28;20440;-80
2023/10/10 12:11:19;;;;;;;0.60;0.53;;;25.70;84.50;;;;;;5035385;28;20478;-82
2023/10/10 12:13:50;;;;;;;6.30;1.57;;;26.00;84.20;;;;;;5016217;28;20500;-79
2023/10/10 12:16:17;;;;;;;0.50;0.50;;;25.90;82.80;;;;;;5017644;28;20546;-83
2023/10/10 12:18:44;;;;;;;1.07;0.77;;;25.70;78.70;;;;;;5010554;28;20450;-78
2023/10/10 12:21:15;;;;;;;0.50;0.50;;;27.10;83.60;;;;;;5015271;28;20447;-83
2023/10/10 12:23:46;;;;;;;0.50;0.30;;;25.90;81.90;;;;;;5031936;28;20492;-79
2023/10/10 12:26:12;;;;;;;2.47;0.83;;;26.10;80.50;;;;;;5020007;28;20460;-78
2023/10/10 12:28:38;;;;;;;1.73;1.63;;;26.10;80.00;;;;;;5025169;28;20489;-78
2023/10/10 12:31:04;;;;;;;3.40;2.70;;;26.00;78.00;;;;;;5051630;28;20190;-80
2023/10/10 12:33:31;;;;;;;1.70;1.47;;;;;;;;;;5029290;28;20443;-80
2023/10/10 12:35:57;;;;;;;1.10;0.97;;;;;;;;;;5049985;28;20447;-76
2023/10/10 12:38:32;;;;;;;0.93;0.93;;;24.80;66.50;;;;;;5042347;28;20504;-82
2023/10/10 12:41:35;;;;;;;1.03;0.93;;;24.30;66.40;;;;;;5051719;28;20454;-84
2023/10/10 12:44:06;;;;;;;2.40;1.23;;;;;;;;;;5067759;22;20516;-82
2023/10/10 12:46:34;;;;;;;2.10;1.90;;;24.30;67.80;;;;;;5009552;28;20474;-82
2023/10/10 12:48:59;;;;;;;1.60;0.93;;;24.30;67.00;;;;;;5006454;28;20463;-82
2023/10/10 12:51:25;;;;;;;3.23;0.53;;;24.30;64.90;;;;;;5000359;28;20447;-83
2023/10/10 12:54:00;;;;;;;1.27;0.93;;;24.60;67.20;;;;;;5002232;28;20188;-83
2023/10/10 12:56:26;;;;;;;6.43;2.43;;;24.70;66.40;;;;;;5005315;28;20474;-83
2023/10/10 12:58:51;;;;;;;2.00;1.13;;;25.00;67.60;;;;;;4994401;28;20447;-84
2023/10/10 13:01:32;;;;;;;1.23;0.97;;;25.30;67.30;;;;;;4999835;28;20827;-82
2023/10/10 13:03:58;;;;;;;1.37;1.30;;;25.50;68.70;;;;;;5006046;28;20396;-83
2023/10/10 13:06:24;;;;;;;4.37;1.53;;;25.40;71.20;;;;;;5004061;28;20459;-82
2023/10/10 13:11:20;;;;;;;1.13;0.93;;;;;;;;;;5006800;28;20194;-83
2023/10/10 13:13:51;;;;;;;3.03;2.73;;;25.00;67.00;;;;;;5002505;28;20441;-82
2023/10/10 13:19:06;;;;;;;1.33;1.07;;;;;;;;;;4999982;28;20540;-83
2023/10/10 13:21:36;;;;;;;0.47;0.33;;;24.70;64.10;;;;;;4999457;28;20507;-83
2023/10/10 13:24:03;;;;;;;2.73;0.93;;;24.70;59.40;;;;;;4994957;28;20468;-82
2023/10/10 13:26:28;;;;;;;4.07;2.10;;;24.40;57.30;;;;;;5001322;28;20476;-83
2023/10/10 13:28:54;;;;;;;1.60;1.50;;;24.30;56.80;;;;;;4997893;28;20443;-83
2023/10/10 13:31:24;;;;;;;1.53;0.50;;;24.30;57.80;;;;;;4999444;28;20299;-82
2023/10/10 13:33:50;;;;;;;3.80;0.87;;;24.30;57.50;;;;;;4999588;28;20175;-82
2023/10/10 13:36:16;;;;;;;0.50;0.50;;;24.10;61.20;;;;;;4994022;28;20470;-82
2023/10/10 13:38:47;;;;;;;0.60;0.40;;;24.20;66.40;;;;;;4997277;28;20957;-82
2023/10/10 13:41:16;;;;;;;1.13;0.87;;;24.20;68.10;;;;;;4994535;28;20575;-83
2023/10/10 13:43:43;;;;;;;3.40;1.07;;;;;;;;;;4995328;28;20975;-84
2023/10/10 13:46:09;;;;;;;1.17;1.00;;;24.20;68.20;;;;;;5002157;28;21049;-82
2023/10/10 13:48:36;;;;;;;0.60;0.60;;;24.30;66.30;;;;;;5002030;28;20429;-82
2023/10/10 13:51:04;;;;;;;2.40;2.10;;;24.10;65.80;;;;;;4991541;28;20178;-82
2023/10/10 13:53:31;;;;;;;0.70;0.63;;;24.00;66.30;;;;;;5016357;28;20448;-82
2023/10/10 13:56:00;;;;;;;2.00;0.80;;;23.80;66.40;;;;;;5001292;28;20492;-82
2023/10/10 13:58:26;;;;;;;2.37;2.27;;;23.80;67.80;;;;;;4998676;28;22911;-82
2023/10/10 14:03:36;;;;;;;2.47;1.53;;;;;;;;;;4999198;28;20273;-82
2023/10/10 14:06:04;;;;;;;1.47;1.03;;;23.90;68.20;;;;;;4999977;28;20451;-84
2023/10/10 14:08:30;;;;;;;0.80;0.80;;;24.00;68.90;;;;;;4993747;28;20470;-84
2023/10/10 14:10:59;;;;;;;9.70;1.77;;;24.00;69.10;;;;;;5000597;28;20958;-84
2023/10/10 14:13:25;;;;;;;0.80;0.77;;;24.00;69.40;;;;;;5000448;28;20554;-82
2023/10/10 14:15:55;;;;;;;0.87;0.63;;;24.00;70.30;;;;;;5002733;28;20547;-84
2023/10/10 14:18:42;;;;;;;1.43;0.87;;;23.90;71.90;;;;;;4999780;28;20829;-84
2023/10/10 14:21:10;;;;;;;1.07;1.00;;;24.10;71.90;;;;;;4999680;28;20442;-84
2023/10/10 14:23:37;;;;;;;0.73;0.73;;;24.10;72.40;;;;;;4997419;28;20556;-82
2023/10/10 14:26:12;;;;;;;0.70;0.40;;;24.10;73.30;;;;;;5003892;28;20455;-82
2023/10/10 14:28:38;;;;;;;0.70;0.67;;;24.20;73.50;;;;;;4998623;28;20437;-83
2023/10/10 14:31:04;;;;;;;4.63;0.97;;;24.20;74.00;;;;;;5016728;28;20761;-83
2023/10/10 14:33:29;;;;;;;1.97;0.77;;;24.30;75.40;;;;;;5002660;28;20552;-82
2023/10/10 14:35:55;;;;;;;0.77;0.77;;;24.30;73.40;;;;;;4998824;28;20237;-82
2023/10/10 14:38:20;;;;;;;0.50;0.33;;;24.20;69.60;;;;;;4999438;28;20183;-82
2023/10/10 14:40:46;;;;;;;1.03;0.83;;;24.00;70.10;;;;;;4999485;28;20225;-82
2023/10/10 14:43:11;;;;;;;0.93;0.87;;;23.80;69.50;;;;;;5000213;28;20215;-82
2023/10/10 14:45:44;;;;;;;0.90;0.77;;;23.60;69.70;;;;;;4999245;28;20224;-82
2023/10/10 14:48:18;;;;;;;0.80;0.50;;;23.60;72.30;;;;;;4999607;28;20204;-82
2023/10/10 14:50:53;;;;;;;2.73;2.60;;;23.50;73.00;;;;;;5003478;28;21104;-82
2023/10/10 14:53:22;;;;;;;4.33;3.33;;;23.50;72.30;;;;;;4999363;28;20440;-82
2023/10/10 14:55:51;;;;;;;0.60;0.50;;;23.60;73.80;;;;;;4996737;28;20526;-84
2023/10/10 14:58:21;;;;;;;0.40;0.30;;;23.70;75.80;;;;;;5012234;28;20595;-83
2023/10/10 15:00:52;;;;;;;0.70;0.70;;;23.60;77.00;;;;;;4999947;28;21128;-83
2023/10/10 15:03:23;;;;;;;0.50;0.40;;;23.50;77.30;;;;;;4995807;28;20448;-82
2023/10/10 15:05:50;;;;;;;2.10;1.13;;;23.60;80.00;;;;;;4997963;28;20473;-82
2023/10/10 15:08:20;;;;;;;0.40;0.30;;;23.20;80.20;;;;;;5002454;28;20450;-83
2023/10/10 15:10:53;;;;;;;1.27;1.07;;;23.20;80.90;;;;;;5002856;28;20482;-82
2023/10/10 15:13:19;;;;;;;0.60;0.53;;;24.50;83.90;;;;;;4998394;28;20450;-83
2023/10/10 15:15:45;;;;;;;0.70;0.70;;;23.30;83.20;;;;;;4995702;28;20466;-82
2023/10/10 15:18:16;;;;;;;1.60;1.27;;;23.30;84.10;;;;;;4998664;28;20657;-83
2023/10/10 15:20:46;;;;;;;0.83;0.70;;;23.30;85.10;;;;;;4996019;28;20477;-82
2023/10/10 15:23:19;;;;;;;2.10;1.53;;;23.30;86.90;;;;;;4995836;28;20445;-82
2023/10/10 15:25:51;;;;;;;0.50;0.40;;;23.10;88.20;;;;;;4992758;28;20481;-83
2023/10/10 15:28:16;;;;;;;1.50;0.87;;;23.00;89.20;;;;;;4994415;28;20542;-82
2023/10/10 15:30:42;;;;;;;9.93;3.03;;;23.00;89.50;;;;;;4990436;28;20526;-82
2023/10/10 15:33:09;;;;;;;1.10;0.70;;;23.00;90.00;;;;;;4996415;28;20634;-82
2023/10/10 15:35:39;;;;;;;2.20;1.80;;;22.90;90.70;;;;;;4999126;28;20205;-83
2023/10/10 15:38:09;;;;;;;1.30;1.20;;;22.80;91.00;;;;;;4998911;28;20448;-83
2023/10/10 15:40:39;;;;;;;0.73;0.57;;;22.80;91.80;;;;;;5003054;28;20536;-83
2023/10/10 15:43:05;;;;;;;0.60;0.53;;;22.70;90.70;;;;;;4994923;28;20480;-83
2023/10/10 15:45:37;;;;;;;0.80;0.50;;;22.60;91.80;;;;;;4993350;28;20564;-82
2023/10/10 15:48:03;;;;;;;0.93;0.80;;;22.40;92.30;;;;;;4995924;28;20462;-82
2023/10/10 15:50:31;;;;;;;1.97;1.00;;;22.10;93.30;;;;;;5010591;28;20440;-82
2023/10/10 15:52:57;;;;;;;0.40;0.30;;;21.80;94.40;;;;;;4994122;28;20444;-83
2023/10/10 15:55:25;;;;;;;0.70;0.50;;;21.30;96.70;;;;;;4993389;28;20461;-82
2023/10/10 15:57:52;;;;;;;0.87;0.70;;;20.90;98.00;;;;;;4995443;28;20194;-82
2023/10/10 16:00:29;;;;;;;1.23;1.13;;;20.60;99.00;;;;;;4992394;28;20452;-83
2023/10/10 16:02:56;;;;;;;0.97;0.87;;;20.40;99.90;;;;;;5002333;28;20831;-82
2023/10/10 16:05:22;;;;;;;0.40;0.37;;;20.00;99.90;;;;;;4994060;28;20893;-83
2023/10/10 16:07:48;;;;;;;1.07;0.97;;;19.90;99.90;;;;;;5000617;28;20509;-82
2023/10/10 16:10:15;;;;;;;2.77;0.87;;;19.80;99.90;;;;;;4998498;28;20451;-82